createdAt,value
2023-01-28T00:00:51.121Z,43.46
2023-01-28T00:03:17.705Z,43.56
2023-01-28T00:05:44.541Z,43.81
2023-01-28T00:08:11.825Z,43.88
2023-01-28T00:10:39.783Z,43.79
2023-01-28T00:13:11.581Z,43.90
2023-01-28T00:15:38.116Z,43.86
2023-01-28T00:18:04.777Z,44.13
2023-01-28T00:20:31.709Z,43.94
2023-01-28T00:22:58.489Z,43.85
2023-01-28T00:25:25.000Z,43.93
2023-01-28T00:27:51.661Z,43.90
2023-01-28T00:30:19.408Z,43.43
2023-01-28T00:32:45.922Z,43.42
2023-01-28T00:35:13.613Z,43.39
2023-01-28T00:37:40.387Z,43.35
2023-01-28T00:40:09.901Z,43.35
2023-01-28T00:42:37.382Z,43.33
2023-01-28T00:45:04.360Z,43.43
2023-01-28T00:47:30.917Z,43.35
2023-01-28T00:49:58.001Z,43.62
2023-01-28T00:52:24.577Z,43.53
2023-01-28T00:54:51.082Z,43.97
2023-01-28T00:57:17.645Z,43.51
2023-01-28T00:59:44.659Z,43.83
2023-01-28T01:02:14.168Z,43.73
2023-01-28T01:04:41.168Z,43.64
2023-01-28T01:07:07.759Z,44.01
2023-01-28T01:09:34.410Z,43.97
2023-01-28T01:12:00.984Z,43.78
2023-01-28T01:14:27.458Z,43.66
2023-01-28T01:16:53.960Z,43.54
2023-01-28T01:19:20.470Z,43.79
2023-01-28T01:21:50.603Z,43.90
2023-01-28T01:24:17.669Z,43.79
2023-01-28T01:26:44.641Z,43.93
2023-01-28T01:29:11.215Z,44.21
2023-01-28T01:31:37.840Z,43.99
2023-01-28T01:34:04.486Z,43.85
2023-01-28T01:36:31.306Z,43.90
2023-01-28T01:38:58.035Z,43.70
2023-01-28T01:41:29.184Z,44.00
2023-01-28T01:44:01.461Z,44.15
2023-01-28T01:46:42.167Z,43.91
2023-01-28T01:49:20.199Z,43.57
2023-01-28T01:51:49.105Z,43.78
2023-01-28T01:54:16.898Z,43.68
2023-01-28T01:56:45.184Z,43.61
2023-01-28T01:59:14.324Z,43.43
2023-01-28T02:01:41.670Z,43.41
2023-01-28T02:04:27.021Z,43.78
2023-01-28T02:06:53.606Z,43.54
2023-01-28T02:09:38.428Z,43.90
2023-01-28T02:12:16.162Z,43.71
2023-01-28T02:14:46.620Z,43.70
2023-01-28T02:17:13.651Z,43.86
2023-01-28T02:20:04.191Z,43.83
2023-01-28T02:22:52.347Z,44.03
2023-01-28T02:25:41.482Z,43.92
2023-01-28T02:28:18.079Z,43.75
2023-01-28T02:30:53.372Z,44.00
2023-01-28T02:33:24.497Z,43.72
2023-01-28T02:35:53.695Z,43.71
2023-01-28T02:38:21.392Z,43.73
2023-01-28T02:41:05.930Z,43.64
2023-01-28T02:43:42.666Z,43.92
2023-01-28T02:46:32.799Z,43.74
2023-01-28T02:48:59.426Z,43.58
2023-01-28T02:51:54.226Z,43.45
2023-01-28T02:54:32.859Z,43.65
2023-01-28T02:57:17.295Z,43.69
2023-01-28T03:00:08.590Z,43.92
2023-01-28T03:03:18.651Z,43.94
2023-01-28T03:06:21.242Z,43.69
2023-01-28T03:09:07.792Z,43.91
2023-01-28T03:11:55.897Z,43.71
2023-01-28T03:14:40.883Z,43.56
2023-01-28T03:17:32.824Z,43.63
2023-01-28T03:20:17.844Z,43.41
2023-01-28T03:23:07.737Z,43.48
2023-01-28T03:25:53.461Z,43.40
2023-01-28T03:28:39.261Z,43.17
2023-01-28T03:31:31.384Z,43.09
2023-01-28T03:34:18.203Z,43.18
2023-01-28T03:36:51.750Z,43.19
2023-01-28T03:39:22.821Z,42.83
2023-01-28T03:42:00.571Z,42.98
2023-01-28T03:44:45.792Z,42.86
2023-01-28T03:47:12.524Z,42.52
2023-01-28T03:49:44.653Z,42.63
2023-01-28T03:52:12.027Z,42.60
2023-01-28T03:54:38.921Z,42.48
2023-01-28T03:57:06.218Z,42.41
2023-01-28T03:59:33.424Z,42.38
2023-01-28T04:02:00.245Z,42.23
2023-01-28T04:04:26.856Z,42.09
2023-01-28T04:06:54.797Z,42.11
2023-01-28T04:09:22.254Z,42.08
2023-01-28T04:11:50.954Z,41.96
2023-01-28T04:14:18.386Z,42.05
2023-01-28T04:16:45.133Z,41.81
2023-01-28T04:19:15.314Z,41.74
2023-01-28T04:21:42.161Z,41.79
2023-01-28T04:24:08.887Z,41.71
2023-01-28T04:26:35.665Z,41.77
2023-01-28T04:29:02.759Z,41.71
2023-01-28T04:31:29.348Z,41.79
2023-01-28T04:33:55.953Z,41.83
2023-01-28T04:36:22.540Z,41.85
2023-01-28T04:38:49.117Z,41.80
2023-01-28T04:41:15.686Z,41.91
2023-01-28T04:43:42.271Z,41.67
2023-01-28T04:46:09.108Z,41.75
2023-01-28T04:48:36.549Z,41.71
2023-01-28T04:51:04.539Z,41.65
2023-01-28T04:53:31.165Z,41.80
2023-01-28T04:55:58.232Z,41.73
2023-01-28T04:58:25.248Z,41.77
2023-01-28T05:00:59.153Z,41.71
2023-01-28T05:03:26.147Z,41.79
2023-01-28T05:05:52.650Z,41.98
2023-01-28T05:08:19.176Z,41.67
2023-01-28T05:10:45.952Z,41.67
2023-01-28T05:13:12.561Z,41.65
2023-01-28T05:15:39.140Z,41.59
2023-01-28T05:18:05.960Z,41.51
2023-01-28T05:20:32.582Z,41.54
2023-01-28T05:22:59.214Z,41.59
2023-01-28T05:25:27.700Z,41.46
2023-01-28T05:27:54.536Z,41.50
2023-01-28T05:30:21.682Z,41.25
2023-01-28T05:32:48.405Z,41.42
2023-01-28T05:35:15.461Z,41.29
2023-01-28T05:37:42.197Z,41.41
2023-01-28T05:40:09.474Z,41.30
2023-01-28T05:42:36.024Z,41.28
2023-01-28T05:45:02.544Z,41.32
2023-01-28T05:47:29.175Z,41.36
2023-01-28T05:49:55.717Z,41.39
2023-01-28T05:52:22.371Z,41.58
2023-01-28T05:54:48.916Z,41.57
2023-01-28T05:57:15.443Z,41.65
2023-01-28T05:59:41.956Z,41.71
2023-01-28T06:02:08.511Z,41.69
2023-01-28T06:04:35.041Z,41.48
2023-01-28T06:07:01.608Z,41.63
2023-01-28T06:09:28.136Z,41.59
2023-01-28T06:11:54.644Z,41.75
2023-01-28T06:14:21.176Z,41.86
2023-01-28T06:16:47.691Z,41.76
2023-01-28T06:19:14.204Z,41.82
2023-01-28T06:21:40.684Z,41.96
2023-01-28T06:24:07.379Z,42.10
2023-01-28T06:26:33.916Z,41.88
2023-01-28T06:29:00.491Z,42.18
2023-01-28T06:31:27.060Z,42.25
2023-01-28T06:33:53.592Z,42.22
2023-01-28T06:36:20.134Z,42.28
2023-01-28T06:38:46.910Z,42.31
2023-01-28T06:41:13.449Z,42.27
2023-01-28T06:43:39.972Z,42.25
2023-01-28T06:46:06.486Z,42.16
2023-01-28T06:48:33.212Z,42.05
2023-01-28T06:50:59.742Z,42.12
2023-01-28T06:53:26.321Z,42.02
2023-01-28T06:55:52.893Z,42.17
2023-01-28T06:58:19.408Z,42.30
2023-01-28T07:00:45.927Z,42.14
2023-01-28T07:03:12.522Z,42.08
2023-01-28T07:05:39.148Z,42.21
2023-01-28T07:08:05.832Z,42.17
2023-01-28T07:10:32.432Z,42.16
2023-01-28T07:12:58.967Z,42.16
2023-01-28T07:15:25.468Z,42.21
2023-01-28T07:17:52.064Z,42.27
2023-01-28T07:20:18.946Z,42.21
2023-01-28T07:22:46.267Z,42.15
2023-01-28T07:25:14.220Z,42.11
2023-01-28T07:27:49.501Z,42.09
2023-01-28T07:30:17.444Z,42.25
2023-01-28T07:32:44.403Z,42.13
2023-01-28T07:35:11.178Z,42.29
2023-01-28T07:37:37.917Z,42.24
2023-01-28T07:40:05.117Z,42.30
2023-01-28T07:42:31.833Z,42.32
2023-01-28T07:44:58.383Z,42.41
2023-01-28T07:47:24.976Z,42.24
2023-01-28T07:49:51.476Z,42.39
2023-01-28T07:52:17.958Z,42.39
2023-01-28T07:54:44.512Z,42.59
2023-01-28T07:57:11.143Z,42.40
2023-01-28T07:59:37.752Z,42.49
2023-01-28T08:02:04.301Z,42.63
2023-01-28T08:04:30.960Z,42.81
2023-01-28T08:06:57.580Z,43.01
2023-01-28T08:09:24.184Z,43.01
2023-01-28T08:11:50.759Z,43.04
2023-01-28T08:14:17.308Z,43.04
2023-01-28T08:16:43.858Z,42.95
2023-01-28T08:19:10.864Z,43.08
2023-01-28T08:21:37.456Z,43.10
2023-01-28T08:24:04.234Z,42.88
2023-01-28T08:26:30.773Z,42.73
2023-01-28T08:28:57.335Z,42.68
2023-01-28T08:31:24.208Z,42.83
2023-01-28T08:33:50.764Z,42.71
2023-01-28T08:36:17.307Z,42.53
2023-01-28T08:38:43.994Z,42.56
2023-01-28T08:41:10.593Z,42.43
2023-01-28T08:43:37.201Z,42.37
2023-01-28T08:46:07.076Z,42.48
2023-01-28T08:48:33.678Z,42.36
2023-01-28T08:51:00.244Z,42.33
2023-01-28T08:53:26.747Z,42.37
2023-01-28T08:55:54.129Z,42.34
2023-01-28T08:58:20.696Z,42.35
2023-01-28T09:00:48.272Z,42.35
2023-01-28T09:03:15.261Z,42.33
2023-01-28T09:05:42.045Z,42.38
2023-01-28T09:08:13.832Z,42.20
2023-01-28T09:10:42.044Z,42.28
2023-01-28T09:13:10.746Z,42.28
2023-01-28T09:15:37.861Z,42.04
2023-01-28T09:18:06.114Z,42.17
2023-01-28T09:20:33.210Z,41.96
2023-01-28T09:23:00.703Z,42.07
2023-01-28T09:25:27.341Z,42.12
2023-01-28T09:27:53.903Z,42.04
2023-01-28T09:30:20.621Z,42.09
2023-01-28T09:32:51.354Z,41.99
2023-01-28T10:51:41.241Z,39.06
2023-01-28T10:54:26.120Z,39.07
2023-01-28T10:56:58.177Z,38.96
2023-01-28T10:59:28.355Z,38.91
2023-01-28T11:01:57.534Z,38.53
2023-01-28T11:04:25.341Z,38.50
2023-01-28T11:06:58.960Z,38.28
2023-01-28T11:09:31.398Z,38.25
2023-01-28T11:11:59.335Z,38.12
2023-01-28T11:14:27.829Z,38.35
2023-01-28T11:16:56.957Z,37.76
2023-01-28T11:19:29.411Z,37.45
2023-01-28T11:21:57.206Z,37.02
2023-01-28T11:24:27.111Z,37.21
2023-01-28T11:26:56.077Z,37.16
2023-01-28T11:29:25.182Z,37.08
2023-01-28T11:31:51.955Z,37.17
2023-01-28T11:34:19.699Z,36.88
2023-01-28T11:37:12.873Z,36.90
2023-01-28T11:39:39.462Z,36.96
2023-01-28T11:42:16.368Z,36.66
2023-01-28T11:44:43.019Z,36.96
2023-01-28T11:47:31.898Z,36.66
2023-01-28T11:50:36.398Z,36.86
2023-01-28T11:53:27.856Z,36.88
2023-01-28T11:56:04.245Z,36.50
2023-01-28T11:58:46.385Z,36.56
2023-01-28T12:01:14.365Z,36.55
2023-01-28T12:03:56.444Z,36.45
2023-01-28T12:06:59.659Z,36.60
2023-01-28T12:09:36.139Z,36.31
2023-01-28T12:12:30.293Z,36.34
2023-01-28T12:15:02.792Z,36.35
2023-01-28T12:17:42.685Z,36.23
2023-01-28T12:20:21.074Z,35.94
2023-01-28T12:23:05.768Z,36.49
2023-01-28T12:25:43.304Z,36.39
2023-01-28T12:28:51.912Z,36.12
2023-01-28T12:32:03.107Z,36.35
2023-01-28T12:34:32.476Z,35.95
2023-01-28T12:37:44.037Z,36.04
2023-01-28T12:40:26.562Z,35.93
2023-01-28T12:42:57.764Z,35.75
2023-01-28T12:45:50.314Z,35.82
2023-01-28T12:48:24.223Z,35.98
2023-01-28T12:51:02.457Z,35.74
2023-01-28T12:53:32.378Z,35.79
2023-01-28T12:56:06.466Z,35.84
2023-01-28T12:59:01.397Z,35.61
2023-01-28T13:01:38.014Z,35.55
2023-01-28T13:04:18.965Z,35.60
2023-01-28T13:06:49.991Z,35.64
2023-01-28T13:09:25.317Z,35.87
2023-01-28T13:11:53.411Z,35.62
2023-01-28T13:14:29.824Z,35.74
2023-01-28T13:16:56.505Z,35.70
2023-01-28T13:19:25.794Z,35.52
2023-01-28T13:21:52.710Z,35.61
2023-01-28T13:24:21.841Z,35.81
2023-01-28T13:26:52.326Z,35.50
2023-01-28T13:29:24.984Z,35.76
2023-01-28T13:31:57.224Z,35.60
2023-01-28T13:34:38.298Z,35.61
2023-01-28T13:37:34.218Z,35.74
2023-01-28T13:40:24.759Z,35.47
2023-01-28T13:43:06.368Z,35.39
2023-01-28T13:45:33.729Z,35.57
2023-01-28T13:48:08.553Z,35.44
2023-01-28T13:50:40.639Z,35.61
2023-01-28T13:53:17.966Z,35.47
2023-01-28T13:55:46.044Z,35.51
2023-01-28T13:58:42.013Z,35.63
2023-01-28T14:01:38.258Z,35.77
2023-01-28T14:04:36.089Z,35.97
2023-01-28T14:07:44.655Z,36.33
2023-01-28T14:10:41.106Z,36.31
2023-01-28T14:13:26.664Z,36.16
2023-01-28T14:16:24.305Z,35.94
2023-01-28T14:18:51.791Z,36.13
2023-01-28T14:21:22.568Z,35.97
2023-01-28T14:23:51.867Z,36.12
2023-01-28T14:26:42.695Z,36.29
2023-01-28T14:29:14.506Z,36.30
2023-01-28T14:34:19.545Z,35.91
2023-01-28T14:36:46.622Z,36.01
2023-01-28T14:41:50.348Z,35.91
2023-01-28T14:50:00.332Z,35.52
2023-01-28T14:53:04.516Z,35.78
2023-01-28T15:18:13.346Z,35.14
2023-01-28T15:20:47.536Z,35.34
2023-01-28T15:25:43.980Z,35.35
2023-01-28T15:28:18.803Z,35.30
2023-01-28T15:30:48.901Z,35.26
2023-01-28T15:34:46.014Z,35.28
2023-01-28T15:37:13.139Z,35.28
2023-01-28T15:39:39.791Z,35.55
2023-01-28T15:42:07.556Z,35.45
2023-01-28T15:44:44.130Z,35.43
2023-01-28T15:47:18.035Z,35.18
2023-01-28T15:49:49.355Z,35.43
2023-01-28T15:52:15.953Z,35.38
2023-01-28T15:54:49.775Z,35.22
2023-01-28T15:57:18.965Z,35.47
2023-01-28T15:59:47.469Z,35.33
2023-01-28T16:02:23.711Z,35.24
2023-01-28T16:05:04.372Z,35.44
2023-01-28T16:07:33.177Z,35.46
2023-01-28T16:10:02.147Z,35.49
2023-01-28T16:12:29.238Z,35.53
2023-01-28T16:15:01.325Z,35.57
2023-01-28T16:17:29.724Z,35.63
2023-01-28T16:19:59.352Z,35.78
2023-01-28T16:22:36.366Z,35.55
2023-01-28T16:25:04.152Z,35.82
2023-01-28T16:27:33.572Z,35.79
2023-01-28T16:30:01.263Z,35.84
2023-01-28T16:32:29.740Z,35.92
2023-01-28T16:34:56.776Z,35.91
2023-01-28T16:37:23.315Z,35.79
2023-01-28T16:39:49.816Z,36.00
2023-01-28T16:42:16.379Z,35.90
2023-01-28T16:44:42.931Z,36.03
2023-01-28T16:47:09.649Z,35.93
2023-01-28T16:49:36.308Z,35.99
2023-01-28T16:52:03.336Z,35.84
2023-01-28T16:54:30.032Z,35.70
2023-01-28T16:56:57.143Z,35.90
2023-01-28T16:59:23.707Z,36.14
2023-01-28T17:01:50.364Z,36.16
2023-01-28T17:04:16.974Z,36.06
2023-01-28T17:06:45.210Z,36.10
2023-01-28T17:09:13.420Z,36.13
2023-01-28T17:11:40.692Z,36.07
2023-01-28T17:14:07.361Z,35.86
2023-01-28T17:16:33.926Z,35.87
2023-01-28T17:19:00.631Z,35.77
2023-01-28T17:21:27.507Z,35.81
2023-01-28T17:23:54.088Z,35.77
2023-01-28T17:26:20.718Z,35.57
2023-01-28T17:28:52.915Z,35.61
2023-01-28T17:31:19.969Z,35.78
2023-01-28T17:33:46.629Z,35.72
2023-01-28T17:36:14.142Z,35.72
2023-01-28T17:38:44.557Z,35.71
2023-01-28T17:41:11.727Z,35.67
2023-01-28T17:43:38.328Z,35.76
2023-01-28T17:46:15.105Z,35.66
2023-01-28T17:48:42.859Z,35.64
2023-01-28T17:51:10.092Z,35.50
2023-01-28T17:53:36.624Z,35.29
2023-01-28T17:56:03.309Z,35.41
2023-01-28T17:58:29.869Z,35.61
2023-01-28T18:00:56.497Z,35.60
2023-01-28T18:03:23.111Z,35.71
2023-01-28T18:05:59.668Z,35.66
2023-01-28T18:08:26.738Z,35.72
2023-01-28T18:10:55.104Z,35.89
2023-01-28T18:13:22.153Z,35.58
2023-01-28T18:15:48.782Z,35.61
2023-01-28T18:18:15.315Z,35.28
2023-01-28T18:20:41.972Z,35.23
2023-01-28T18:23:08.531Z,35.20
2023-01-28T18:25:35.091Z,35.19
2023-01-28T18:28:01.734Z,34.98
2023-01-28T18:30:30.133Z,34.88
2023-01-28T18:32:56.747Z,34.76
2023-01-28T18:35:23.328Z,34.88
2023-01-28T18:37:49.843Z,34.95
2023-01-28T18:40:16.591Z,35.19
2023-01-28T18:42:43.148Z,35.24
2023-01-28T18:45:10.111Z,35.08
2023-01-28T18:47:36.661Z,35.26
2023-01-28T18:50:04.093Z,35.24
2023-01-28T18:52:30.569Z,35.17
2023-01-28T18:54:57.638Z,35.11
2023-01-28T18:57:24.181Z,35.33
2023-01-28T18:59:50.732Z,35.33
2023-01-28T19:02:17.365Z,35.41
2023-01-28T19:04:43.998Z,35.43
2023-01-28T19:07:11.923Z,35.49
2023-01-28T19:09:38.750Z,35.59
2023-01-28T19:12:05.673Z,35.58
2023-01-28T19:14:32.308Z,35.59
2023-01-28T19:16:59.057Z,35.58
2023-01-28T19:19:25.790Z,35.70
2023-01-28T19:21:52.946Z,35.83
2023-01-28T19:24:19.498Z,35.80
2023-01-28T19:26:46.313Z,35.63
2023-01-28T19:29:16.226Z,35.55
2023-01-28T19:31:44.346Z,35.46
2023-01-28T19:34:11.189Z,35.44
2023-01-28T19:36:38.125Z,35.48
2023-01-28T19:39:07.070Z,35.26
2023-01-28T19:41:33.745Z,35.48
2023-01-28T19:44:00.579Z,35.45
2023-01-28T19:46:27.911Z,35.50
2023-01-28T19:48:54.853Z,35.25
2023-01-28T19:51:22.158Z,35.18
2023-01-28T19:53:52.500Z,35.08
2023-01-28T19:56:19.777Z,35.27
2023-01-28T19:58:46.383Z,35.21
2023-01-28T20:01:15.672Z,35.15
2023-01-28T20:03:43.122Z,35.04
2023-01-28T20:06:15.736Z,35.17
2023-01-28T20:08:43.041Z,34.86
2023-01-28T20:11:11.364Z,35.08
2023-01-28T20:13:39.255Z,35.25
2023-01-28T20:16:08.597Z,35.12
2023-01-28T20:18:35.668Z,35.20
2023-01-28T20:21:04.946Z,35.22
2023-01-28T20:23:31.634Z,35.44
2023-01-28T20:25:58.955Z,35.32
2023-01-28T20:28:25.922Z,35.02
2023-01-28T20:30:55.724Z,35.19
2023-01-28T20:33:22.728Z,35.17
2023-01-28T20:35:49.434Z,35.06
2023-01-28T20:38:15.951Z,35.02
2023-01-28T20:40:43.316Z,34.92
2023-01-28T20:43:10.754Z,34.75
2023-01-28T20:45:37.576Z,34.84
2023-01-28T20:48:04.467Z,34.95
2023-01-28T20:50:30.997Z,34.59
2023-01-28T20:52:58.124Z,34.41
2023-01-28T20:55:24.848Z,34.69
2023-01-28T20:57:52.274Z,34.60
2023-01-28T21:00:19.469Z,34.42
2023-01-28T21:02:46.202Z,34.39
2023-01-28T21:05:13.372Z,34.42
2023-01-28T21:07:39.923Z,34.80
2023-01-28T21:10:06.978Z,34.38
2023-01-28T21:12:34.693Z,34.50
2023-01-28T21:15:01.318Z,34.54
2023-01-28T21:17:27.980Z,34.59
2023-01-28T21:19:54.499Z,34.67
2023-01-28T21:22:21.041Z,34.57
2023-01-28T21:24:49.053Z,34.97
2023-01-28T21:27:15.830Z,35.05
2023-01-28T21:29:42.557Z,35.02
2023-01-28T21:32:09.300Z,35.02
2023-01-28T21:34:36.064Z,35.07
2023-01-28T21:37:02.641Z,35.33
2023-01-28T21:39:29.431Z,35.49
2023-01-28T21:41:56.136Z,35.55
2023-01-28T21:44:22.800Z,35.72
2023-01-28T21:46:49.417Z,35.78
2023-01-28T21:49:16.050Z,35.79
2023-01-28T21:51:48.151Z,35.81
2023-01-28T21:54:15.687Z,36.02
2023-01-28T21:56:44.987Z,35.87
2023-01-28T21:59:27.849Z,36.06
2023-01-28T22:02:06.415Z,35.82
2023-01-28T22:04:39.333Z,35.69
2023-01-28T22:07:08.417Z,35.71
2023-01-28T22:09:35.353Z,35.78
2023-01-28T22:12:03.749Z,36.05
2023-01-28T22:14:30.377Z,35.83
2023-01-28T22:16:56.998Z,35.90
2023-01-28T22:19:23.620Z,35.90
2023-01-28T22:21:50.230Z,35.85
2023-01-28T22:24:22.427Z,35.83
2023-01-28T22:26:49.106Z,36.09
2023-01-28T22:29:16.675Z,35.90
2023-01-28T22:31:45.592Z,36.18
2023-01-28T22:34:12.272Z,35.90
2023-01-28T22:36:38.790Z,35.75
2023-01-28T22:39:06.797Z,35.79
2023-01-28T22:41:33.612Z,35.80
2023-01-28T22:44:03.828Z,35.84
2023-01-28T22:46:33.093Z,35.71
2023-01-28T22:48:59.908Z,35.65
2023-01-28T22:51:29.294Z,35.61
2023-01-28T22:53:56.127Z,35.76
2023-01-28T22:56:25.452Z,35.75
2023-01-28T22:59:00.257Z,35.66
2023-01-28T23:01:27.567Z,35.63
2023-01-28T23:03:56.231Z,35.62
2023-01-28T23:06:24.010Z,35.81
2023-01-28T23:08:51.738Z,35.75
2023-01-28T23:11:28.487Z,35.51
2023-01-28T23:14:16.205Z,35.73
2023-01-28T23:17:02.550Z,35.55
2023-01-28T23:19:47.621Z,35.46
2023-01-28T23:22:35.514Z,35.44
2023-01-28T23:25:02.044Z,35.43
2023-01-28T23:27:28.645Z,35.38
2023-01-28T23:29:55.151Z,35.47
2023-01-28T23:32:22.586Z,35.56
2023-01-28T23:34:49.300Z,35.48
2023-01-28T23:37:16.556Z,35.38
2023-01-28T23:39:43.334Z,35.53
2023-01-28T23:42:11.464Z,35.65
2023-01-28T23:44:38.057Z,35.48
2023-01-28T23:47:04.614Z,35.40
2023-01-28T23:49:31.293Z,35.41
2023-01-28T23:51:57.881Z,35.52
2023-01-28T23:54:24.390Z,35.60
2023-01-28T23:56:51.022Z,35.48
2023-01-28T23:59:18.346Z,35.65
